Time;durP1;ratioP1;P1;durP2;ratioP2;P2;SDS_P1;SDS_P2;PMS_P1;PMS_P2;Temp;Humidity;BMP_temperature;BMP_pressure;BME280_temperature;BME280_humidity;BME280_pressure;Samples;Min_cycle;Max_cycle;Signal;HPM_P1;HPM_P2
2022/04/07 00:00:18;;;;;;;7.63;5.07;;;10.70;89.00;;;;;;5089323;28;20118;-77
2022/04/07 00:02:44;;;;;;;9.23;5.20;;;10.70;88.90;;;;;;5088244;28;20374;-76
2022/04/07 00:05:09;;;;;;;7.80;4.82;;;10.70;89.00;;;;;;5089786;28;20031;-77
2022/04/07 00:07:35;;;;;;;10.05;4.68;;;10.70;89.10;;;;;;5089102;28;20040;-77
2022/04/07 00:10:01;;;;;;;7.75;4.75;;;10.70;89.00;;;;;;5089862;28;20023;-77
2022/04/07 00:12:26;;;;;;;8.38;4.82;;;10.70;89.00;;;;;;5079538;28;20028;-76
2022/04/07 00:14:52;;;;;;;7.85;4.68;;;10.70;89.00;;;;;;5088522;28;20031;-78
2022/04/07 00:17:17;;;;;;;8.30;4.47;;;10.70;89.00;;;;;;5087788;28;20024;-78
2022/04/07 00:19:43;;;;;;;7.47;4.70;;;10.70;89.00;;;;;;5089245;28;20028;-77
2022/04/07 00:22:09;;;;;;;7.65;4.53;;;10.70;89.10;;;;;;5089299;28;20020;-76
2022/04/07 00:24:34;;;;;;;7.20;4.32;;;10.70;89.00;;;;;;5089146;28;20043;-77
2022/04/07 00:27:00;;;;;;;8.00;4.32;;;10.70;89.00;;;;;;5087320;28;20020;-77
2022/04/07 00:29:25;;;;;;;8.82;4.53;;;10.70;89.10;;;;;;5088951;28;20036;-76
2022/04/07 00:31:57;;;;;;;7.88;4.00;;;10.70;89.10;;;;;;5089130;28;20073;-78
2022/04/07 00:34:23;;;;;;;8.23;4.68;;;10.70;89.10;;;;;;5088050;28;20020;-80
2022/04/07 00:36:48;;;;;;;7.60;4.60;;;10.70;89.40;;;;;;5087891;28;20035;-78
2022/04/07 00:39:14;;;;;;;8.13;4.13;;;10.70;89.20;;;;;;5087601;28;20032;-78
2022/04/07 00:41:40;;;;;;;8.13;4.10;;;10.70;89.20;;;;;;5088561;28;20038;-77
2022/04/07 00:44:08;;;;;;;7.63;3.92;;;10.70;89.20;;;;;;5088965;28;20034;-76
2022/04/07 00:46:38;;;;;;;6.75;4.05;;;10.70;89.10;;;;;;5089041;28;20085;-77
2022/04/07 00:49:04;;;;;;;7.97;4.53;;;10.70;89.20;;;;;;5089125;28;20032;-76
2022/04/07 00:51:30;;;;;;;7.68;4.22;;;10.70;89.20;;;;;;5086922;28;20052;-76
2022/04/07 00:53:57;;;;;;;7.55;3.80;;;10.70;89.20;;;;;;5087678;28;20025;-77
2022/04/07 00:56:26;;;;;;;7.70;4.10;;;10.70;89.30;;;;;;5088497;28;20032;-77
2022/04/07 00:58:53;;;;;;;7.35;4.28;;;10.70;89.40;;;;;;5088485;28;20020;-77
2022/04/07 01:01:20;;;;;;;6.70;3.88;;;10.70;89.30;;;;;;5087263;28;20086;-77
2022/04/07 01:03:47;;;;;;;6.93;4.22;;;10.70;89.30;;;;;;5088831;28;20024;-79
2022/04/07 01:06:12;;;;;;;6.60;3.72;;;10.70;89.30;;;;;;5088757;28;20070;-76
2022/04/07 01:08:39;;;;;;;7.35;4.05;;;10.70;89.40;;;;;;5088270;28;20028;-77
2022/04/07 01:11:05;;;;;;;7.82;4.22;;;10.70;89.30;;;;;;5088770;28;20436;-77
2022/04/07 01:13:46;;;;;;;7.07;3.83;;;10.70;89.40;;;;;;5088547;28;20028;-77
2022/04/07 01:16:13;;;;;;;5.75;3.42;;;10.70;89.40;;;;;;5088574;28;20032;-77
2022/04/07 01:18:38;;;;;;;6.50;3.50;;;10.70;89.40;;;;;;5087393;28;20027;-76
2022/04/07 01:21:04;;;;;;;6.13;3.38;;;10.70;89.40;;;;;;5089126;28;20016;-77
2022/04/07 01:23:34;;;;;;;6.40;3.45;;;10.70;89.40;;;;;;5087354;28;20028;-76
2022/04/07 01:26:04;;;;;;;7.05;3.40;;;10.70;89.50;;;;;;5086254;28;20047;-78
2022/04/07 01:28:29;;;;;;;6.25;3.30;;;10.70;89.40;;;;;;5088272;28;20022;-78
2022/04/07 01:30:55;;;;;;;6.07;3.25;;;10.70;89.40;;;;;;5088624;28;20021;-77
2022/04/07 01:33:21;;;;;;;6.65;3.33;;;10.70;89.40;;;;;;5087382;28;20074;-78
2022/04/07 01:35:46;;;;;;;6.97;3.30;;;10.70;89.50;;;;;;5088762;28;20024;-78
2022/04/07 01:38:12;;;;;;;6.22;3.22;;;10.70;89.30;;;;;;5087038;28;20023;-78
2022/04/07 01:40:38;;;;;;;5.78;3.13;;;10.70;89.40;;;;;;5092657;28;20473;-78
2022/04/07 01:43:07;;;;;;;5.50;3.00;;;10.70;89.40;;;;;;5092260;28;20099;-75
2022/04/07 01:45:34;;;;;;;6.78;2.90;;;10.70;89.30;;;;;;5092262;28;20020;-77
2022/04/07 01:48:02;;;;;;;5.57;3.47;;;10.70;89.50;;;;;;5092079;28;20020;-75
2022/04/07 01:50:29;;;;;;;5.82;3.08;;;10.70;89.40;;;;;;5090871;28;20020;-76
2022/04/07 01:52:55;;;;;;;5.18;2.97;;;10.70;89.40;;;;;;5092440;28;20081;-79
2022/04/07 01:55:22;;;;;;;5.88;3.15;;;10.70;89.40;;;;;;5092272;28;20122;-77
2022/04/07 01:57:48;;;;;;;4.78;2.90;;;10.70;89.40;;;;;;5090450;28;20024;-76
2022/04/07 02:00:14;;;;;;;4.85;2.83;;;10.70;89.40;;;;;;5092050;28;20035;-78
2022/04/07 02:02:40;;;;;;;6.03;3.10;;;10.70;89.40;;;;;;5090350;28;20032;-76
2022/04/07 02:05:11;;;;;;;7.10;3.13;;;10.70;89.50;;;;;;5092394;28;20048;-77
2022/04/07 02:07:37;;;;;;;6.30;3.10;;;10.70;89.50;;;;;;5091872;28;20077;-77
2022/04/07 02:10:04;;;;;;;6.10;3.20;;;10.70;89.40;;;;;;5090402;28;20020;-74
2022/04/07 02:12:30;;;;;;;5.10;2.65;;;10.70;89.40;;;;;;5090658;28;20051;-75
2022/04/07 02:14:57;;;;;;;5.70;3.05;;;10.70;89.60;;;;;;5091813;28;20090;-76
2022/04/07 02:17:22;;;;;;;5.40;2.70;;;10.70;89.40;;;;;;5091569;28;20111;-75
2022/04/07 02:19:56;;;;;;;6.15;2.80;;;10.70;89.50;;;;;;5091793;28;20079;-74
2022/04/07 02:22:22;;;;;;;5.82;3.10;;;10.70;89.50;;;;;;5091315;28;20111;-76
2022/04/07 02:24:48;;;;;;;6.20;3.10;;;10.70;89.40;;;;;;5078741;28;20806;-74
2022/04/07 02:27:14;;;;;;;5.30;2.80;;;10.70;89.60;;;;;;5091366;28;20034;-74
2022/04/07 02:29:42;;;;;;;5.43;2.88;;;10.70;89.50;;;;;;5090101;28;20031;-73
2022/04/07 02:32:08;;;;;;;4.82;3.20;;;10.70;89.70;;;;;;5090162;28;20524;-75
2022/04/07 02:34:34;;;;;;;5.97;3.00;;;10.70;89.90;;;;;;5080260;28;20032;-75
2022/04/07 02:37:00;;;;;;;5.05;3.00;;;10.70;89.80;;;;;;5090038;28;20112;-77
2022/04/07 02:39:26;;;;;;;4.88;2.53;;;10.70;89.70;;;;;;5089751;28;20039;-75
2022/04/07 02:41:53;;;;;;;5.00;2.70;;;10.70;89.70;;;;;;5091209;28;20417;-77
2022/04/07 02:44:19;;;;;;;5.45;2.85;;;10.70;89.60;;;;;;5090437;28;20520;-75
2022/04/07 02:46:45;;;;;;;5.20;2.85;;;10.70;89.60;;;;;;5090944;28;20024;-75
2022/04/07 02:49:10;;;;;;;5.55;2.80;;;10.70;89.60;;;;;;5089647;28;20111;-75
2022/04/07 02:51:36;;;;;;;4.40;2.60;;;10.70;89.50;;;;;;5090440;28;20397;-77
2022/04/07 02:54:01;;;;;;;4.57;2.63;;;10.70;89.40;;;;;;5089614;28;20109;-76
2022/04/07 02:56:28;;;;;;;6.53;2.67;;;10.70;89.50;;;;;;5090944;28;20028;-75
2022/04/07 02:58:57;;;;;;;5.30;2.88;;;10.60;89.40;;;;;;5090578;28;20023;-75
2022/04/07 03:01:23;;;;;;;5.07;2.88;;;10.70;89.60;;;;;;5089250;28;20035;-75
2022/04/07 03:03:49;;;;;;;5.22;2.60;;;10.70;89.50;;;;;;5090824;28;20028;-76
2022/04/07 03:06:16;;;;;;;4.97;2.50;;;10.70;89.40;;;;;;5089388;28;20016;-74
2022/04/07 03:08:42;;;;;;;4.78;2.40;;;10.70;89.50;;;;;;5090975;28;20027;-74
2022/04/07 03:11:08;;;;;;;5.03;2.53;;;10.60;89.40;;;;;;5090648;28;20028;-74
2022/04/07 03:13:36;;;;;;;4.88;2.40;;;10.70;89.90;;;;;;5089435;28;20028;-76
2022/04/07 03:16:02;;;;;;;5.30;2.60;;;10.70;89.40;;;;;;5090632;28;20111;-75
2022/04/07 03:18:28;;;;;;;5.43;2.47;;;10.70;89.40;;;;;;5090410;28;20091;-74
2022/04/07 03:20:53;;;;;;;5.55;2.67;;;10.60;89.30;;;;;;5090503;28;20040;-74
2022/04/07 03:23:19;;;;;;;5.43;2.70;;;10.70;89.40;;;;;;5089072;28;20074;-77
2022/04/07 03:25:46;;;;;;;4.82;2.28;;;10.70;89.40;;;;;;5090333;28;20032;-76
2022/04/07 03:28:11;;;;;;;4.43;2.30;;;10.70;89.50;;;;;;5090043;28;20028;-77
2022/04/07 03:30:37;;;;;;;5.68;2.20;;;10.60;89.30;;;;;;5090133;28;20508;-75
2022/04/07 03:33:02;;;;;;;4.75;2.25;;;10.70;89.30;;;;;;5090361;28;20387;-75
2022/04/07 03:35:28;;;;;;;5.75;2.47;;;10.70;89.30;;;;;;5090379;28;20020;-75
2022/04/07 03:37:53;;;;;;;6.70;2.53;;;10.70;89.20;;;;;;5088707;28;20024;-74
2022/04/07 03:40:19;;;;;;;5.45;2.30;;;10.70;89.30;;;;;;5088472;28;20073;-74
2022/04/07 03:42:44;;;;;;;6.07;2.13;;;10.70;89.30;;;;;;5089133;28;20119;-74
2022/04/07 03:45:10;;;;;;;4.05;2.00;;;10.70;89.30;;;;;;5089000;28;20028;-76
2022/04/07 03:47:36;;;;;;;4.65;2.20;;;10.70;89.40;;;;;;5068352;28;20046;-76
2022/04/07 03:50:02;;;;;;;4.93;2.00;;;10.70;89.40;;;;;;5069755;28;20497;-73
2022/04/07 03:52:28;;;;;;;5.95;2.20;;;10.70;89.50;;;;;;5069812;28;20041;-74
2022/04/07 03:54:53;;;;;;;5.15;1.90;;;10.70;89.40;;;;;;5069734;28;20110;-74
2022/04/07 03:57:19;;;;;;;4.40;1.88;;;10.70;89.60;;;;;;5072598;28;20104;-75
2022/04/07 03:59:44;;;;;;;4.70;1.85;;;10.70;89.60;;;;;;5082511;28;20456;-75
2022/04/07 04:02:10;;;;;;;4.53;1.75;;;10.60;89.90;;;;;;5088536;28;20028;-74
2022/04/07 04:04:38;;;;;;;4.25;1.80;;;10.70;89.40;;;;;;5090054;28;20020;-74
2022/04/07 04:07:05;;;;;;;4.20;1.70;;;10.70;89.50;;;;;;5089222;28;20034;-75
2022/04/07 04:09:31;;;;;;;3.83;1.60;;;10.70;89.40;;;;;;5087977;28;20050;-78
2022/04/07 04:11:56;;;;;;;4.40;1.83;;;10.70;89.40;;;;;;5089247;28;20028;-75
2022/04/07 04:14:22;;;;;;;4.50;1.67;;;10.70;89.50;;;;;;5089661;28;20077;-75
2022/04/07 04:16:47;;;;;;;4.78;1.73;;;10.70;89.50;;;;;;5089033;28;20466;-75
2022/04/07 04:19:13;;;;;;;3.97;1.60;;;10.70;89.50;;;;;;5088050;28;20031;-79
2022/04/07 04:21:38;;;;;;;4.82;1.80;;;10.70;89.40;;;;;;5089472;28;20052;-74
2022/04/07 04:24:04;;;;;;;4.07;1.60;;;10.70;89.50;;;;;;5088268;28;20081;-75
2022/04/07 04:26:30;;;;;;;4.57;1.70;;;10.70;89.40;;;;;;5087611;28;20421;-77
2022/04/07 04:28:55;;;;;;;4.03;2.00;;;10.70;89.30;;;;;;5087882;28;20020;-75
2022/04/07 04:31:24;;;;;;;4.38;1.63;;;10.70;89.30;;;;;;5079333;28;20036;-74
2022/04/07 04:33:51;;;;;;;4.78;1.65;;;10.70;89.40;;;;;;5069048;28;20021;-74
2022/04/07 04:36:17;;;;;;;3.53;1.60;;;10.70;89.30;;;;;;5080186;28;20485;-75
2022/04/07 04:38:42;;;;;;;3.80;1.50;;;10.60;89.40;;;;;;5087738;28;20057;-78
2022/04/07 04:41:09;;;;;;;5.30;1.60;;;10.70;89.40;;;;;;5088962;28;20157;-77
2022/04/07 04:43:34;;;;;;;5.10;1.63;;;10.70;89.30;;;;;;5088836;28;20110;-75
2022/04/07 04:46:00;;;;;;;4.30;1.58;;;10.70;89.40;;;;;;5085587;28;20150;-76
2022/04/07 04:48:25;;;;;;;3.35;1.50;;;10.70;89.50;;;;;;5085146;28;20032;-76
2022/04/07 04:50:51;;;;;;;3.40;1.40;;;10.70;89.50;;;;;;5069884;28;20036;-77
2022/04/07 04:53:16;;;;;;;3.80;1.50;;;10.70;89.40;;;;;;5087647;28;20032;-77
2022/04/07 04:55:42;;;;;;;3.55;1.55;;;10.80;89.50;;;;;;5087493;28;20123;-75
2022/04/07 04:58:07;;;;;;;4.38;1.77;;;10.70;89.40;;;;;;5087270;28;20104;-77
2022/04/07 05:00:33;;;;;;;5.00;1.67;;;10.70;89.30;;;;;;5087659;28;20028;-75
2022/04/07 05:02:58;;;;;;;3.85;1.52;;;10.70;89.40;;;;;;5088613;28;20032;-75
2022/04/07 05:05:24;;;;;;;3.97;1.50;;;10.70;89.40;;;;;;5089960;28;20369;-74
2022/04/07 05:07:49;;;;;;;4.45;1.83;;;10.70;89.40;;;;;;5087115;28;20024;-74
2022/04/07 05:10:15;;;;;;;4.85;1.60;;;10.70;89.30;;;;;;5083364;28;20021;-76
2022/04/07 05:12:40;;;;;;;4.25;1.52;;;10.70;89.30;;;;;;5070180;28;20116;-75
2022/04/07 05:15:07;;;;;;;6.85;1.50;;;10.70;89.30;;;;;;5080742;28;20024;-75
2022/04/07 05:17:33;;;;;;;5.97;1.70;;;10.70;89.70;;;;;;5088166;28;20107;-75
2022/04/07 05:19:58;;;;;;;3.20;1.30;;;10.70;89.10;;;;;;5075390;28;20455;-76
2022/04/07 05:22:24;;;;;;;4.72;1.35;;;10.70;89.10;;;;;;5079617;28;20028;-74
2022/04/07 05:24:50;;;;;;;2.55;1.23;;;10.70;88.90;;;;;;5069157;28;20029;-75
2022/04/07 05:27:17;;;;;;;4.60;1.70;;;10.70;88.80;;;;;;5069575;28;20134;-74
2022/04/07 05:29:42;;;;;;;6.03;2.00;;;10.70;88.90;;;;;;5089220;28;20025;-75
2022/04/07 05:32:08;;;;;;;7.85;1.70;;;10.80;89.00;;;;;;5088925;28;20027;-75
2022/04/07 05:34:34;;;;;;;5.22;2.25;;;10.70;89.10;;;;;;5089418;28;20708;-74
2022/04/07 05:36:59;;;;;;;6.05;2.60;;;10.70;89.10;;;;;;5089060;28;20028;-75
2022/04/07 05:39:25;;;;;;;6.40;2.65;;;10.70;89.10;;;;;;5090668;28;20036;-75
2022/04/07 05:41:50;;;;;;;7.47;2.75;;;10.70;89.10;;;;;;5090506;28;20028;-72
2022/04/07 05:44:16;;;;;;;7.35;2.95;;;10.70;89.10;;;;;;5089309;28;20469;-73
2022/04/07 05:46:41;;;;;;;6.97;2.38;;;10.70;89.00;;;;;;5088952;28;20028;-79
2022/04/07 05:49:10;;;;;;;5.57;2.25;;;10.80;88.90;;;;;;5090333;28;20028;-74
2022/04/07 05:51:36;;;;;;;6.45;2.50;;;10.80;88.70;;;;;;5089137;28;20024;-73
2022/04/07 05:54:01;;;;;;;7.43;2.42;;;10.80;88.70;;;;;;5090447;28;20055;-74
2022/04/07 05:56:27;;;;;;;7.50;2.40;;;10.70;88.70;;;;;;5089054;28;20066;-74
2022/04/07 05:58:53;;;;;;;8.05;2.17;;;10.80;88.80;;;;;;5089061;28;20024;-75
2022/04/07 06:01:18;;;;;;;6.22;2.28;;;10.80;88.70;;;;;;5088979;28;20499;-77
2022/04/07 06:03:44;;;;;;;4.45;2.00;;;10.80;88.70;;;;;;5089097;28;20039;-74
2022/04/07 06:06:09;;;;;;;5.20;2.17;;;10.70;88.60;;;;;;5090322;28;20026;-74
2022/04/07 06:08:35;;;;;;;5.38;1.90;;;10.70;88.50;;;;;;5089021;28;20027;-75
2022/04/07 06:11:00;;;;;;;4.43;2.10;;;10.80;88.40;;;;;;5089894;28;20028;-76
2022/04/07 06:13:26;;;;;;;6.57;2.00;;;10.80;88.40;;;;;;5089627;28;20626;-78
2022/04/07 06:15:51;;;;;;;5.78;2.10;;;10.80;88.30;;;;;;5089076;28;20020;-76
2022/04/07 06:18:17;;;;;;;4.47;1.70;;;10.80;88.30;;;;;;5089173;28;20527;-76
2022/04/07 06:20:46;;;;;;;4.88;1.58;;;10.80;88.30;;;;;;5090140;28;20036;-74
2022/04/07 06:23:12;;;;;;;5.60;1.70;;;10.80;88.40;;;;;;5088860;28;20050;-75
2022/04/07 06:25:37;;;;;;;4.13;1.50;;;10.80;88.40;;;;;;5089782;28;20028;-76
2022/04/07 06:28:04;;;;;;;5.80;1.70;;;10.80;88.60;;;;;;5092537;28;20082;-74
2022/04/07 06:30:30;;;;;;;4.53;1.50;;;10.80;88.50;;;;;;5092690;28;20081;-74
2022/04/07 06:32:56;;;;;;;5.57;1.55;;;10.80;88.30;;;;;;5092337;28;20115;-74
2022/04/07 06:35:22;;;;;;;6.22;1.77;;;10.80;88.40;;;;;;5091921;28;20673;-75
2022/04/07 06:37:55;;;;;;;6.72;1.77;;;10.80;88.50;;;;;;5091923;28;20067;-75
2022/04/07 06:40:23;;;;;;;4.50;1.73;;;10.80;88.50;;;;;;5092898;28;20047;-75
2022/04/07 06:42:49;;;;;;;5.90;1.80;;;10.80;88.60;;;;;;5092189;28;20039;-75
2022/04/07 06:45:15;;;;;;;4.95;1.70;;;10.80;88.70;;;;;;5092235;28;20138;-75
2022/04/07 06:47:42;;;;;;;3.92;1.48;;;10.70;88.60;;;;;;5093048;28;20119;-75
2022/04/07 06:50:13;;;;;;;3.42;1.40;;;10.80;88.80;;;;;;5091743;28;20025;-74
2022/04/07 06:52:40;;;;;;;4.15;1.45;;;10.80;88.90;;;;;;5091939;28;20071;-74
2022/04/07 06:55:06;;;;;;;3.95;1.30;;;10.80;88.90;;;;;;5092274;28;20031;-77
2022/04/07 06:57:45;;;;;;;5.28;1.60;;;10.80;88.90;;;;;;5092441;28;20550;-76
2022/04/07 07:00:12;;;;;;;3.38;1.40;;;10.80;89.10;;;;;;5091823;28;20055;-75
2022/04/07 07:02:37;;;;;;;4.32;1.58;;;10.70;89.30;;;;;;5091763;28;20028;-77
2022/04/07 07:05:03;;;;;;;3.00;1.50;;;10.80;89.20;;;;;;5091955;28;20028;-75
2022/04/07 07:07:28;;;;;;;2.85;1.25;;;10.80;89.20;;;;;;5091285;28;20089;-75
2022/04/07 07:09:54;;;;;;;3.72;1.30;;;10.80;89.20;;;;;;5091969;28;20504;-75
2022/04/07 07:12:20;;;;;;;3.63;1.35;;;10.80;89.20;;;;;;5091649;28;20028;-77
2022/04/07 07:14:47;;;;;;;3.10;1.23;;;10.80;89.40;;;;;;5092948;28;20032;-79
2022/04/07 07:17:12;;;;;;;4.25;1.23;;;10.70;89.40;;;;;;5091345;28;20020;-75
2022/04/07 07:19:38;;;;;;;3.13;1.08;;;10.80;89.50;;;;;;5091570;28;20712;-75
2022/04/07 07:22:03;;;;;;;2.53;1.20;;;10.80;89.60;;;;;;5087517;28;20025;-75
2022/04/07 07:24:29;;;;;;;2.85;1.20;;;10.70;89.60;;;;;;5072683;28;20024;-74
2022/04/07 07:26:54;;;;;;;2.60;0.90;;;10.70;89.70;;;;;;5071131;28;20020;-76
2022/04/07 07:29:20;;;;;;;2.20;1.10;;;10.80;89.80;;;;;;5070865;28;20031;-76
2022/04/07 07:31:45;;;;;;;3.15;1.00;;;10.80;89.80;;;;;;5070778;28;20405;-75
2022/04/07 07:34:11;;;;;;;2.70;1.10;;;10.80;89.80;;;;;;5072200;28;20032;-75
2022/04/07 07:36:36;;;;;;;1.95;0.90;;;10.80;90.00;;;;;;5070768;28;20026;-75
2022/04/07 07:39:02;;;;;;;3.20;1.20;;;10.80;90.00;;;;;;5071090;28;20055;-75
2022/04/07 07:41:27;;;;;;;3.70;1.23;;;10.80;90.00;;;;;;5073663;28;20489;-78
2022/04/07 07:43:53;;;;;;;2.42;1.20;;;10.80;90.00;;;;;;5092466;28;20020;-77
2022/04/07 07:46:19;;;;;;;3.63;1.25;;;10.80;90.00;;;;;;5090997;28;20390;-79
2022/04/07 07:48:45;;;;;;;4.07;1.23;;;10.80;90.00;;;;;;5090787;28;20031;-75
2022/04/07 07:51:11;;;;;;;3.55;1.15;;;10.80;90.00;;;;;;5090654;28;20032;-75
2022/04/07 07:53:36;;;;;;;2.10;1.20;;;10.80;90.10;;;;;;5072824;28;20445;-75
2022/04/07 07:56:02;;;;;;;2.95;1.30;;;10.80;90.10;;;;;;5071878;28;20191;-76
2022/04/07 07:58:27;;;;;;;2.08;1.25;;;10.80;90.10;;;;;;5070097;28;20036;-75
2022/04/07 08:00:54;;;;;;;3.58;1.10;;;10.80;90.10;;;;;;5070786;28;20029;-75
2022/04/07 08:03:19;;;;;;;3.15;1.25;;;10.80;90.10;;;;;;5089654;28;20384;-74
2022/04/07 08:05:45;;;;;;;2.72;1.05;;;10.80;90.10;;;;;;5090633;28;20020;-76
2022/04/07 08:08:11;;;;;;;3.63;1.30;;;10.80;90.10;;;;;;5091144;28;20024;-75
2022/04/07 08:10:37;;;;;;;2.42;1.10;;;10.80;90.10;;;;;;5077487;28;20056;-72
2022/04/07 08:13:02;;;;;;;2.78;1.52;;;10.80;90.10;;;;;;5082054;28;20123;-73
2022/04/07 08:15:29;;;;;;;1.92;1.05;;;10.80;90.10;;;;;;5087454;28;20306;-74
2022/04/07 08:17:54;;;;;;;2.05;1.10;;;10.80;90.10;;;;;;5070653;28;20026;-74
2022/04/07 08:20:20;;;;;;;3.78;1.13;;;10.80;90.00;;;;;;5082767;28;20039;-74
2022/04/07 08:22:45;;;;;;;1.98;1.08;;;10.80;90.10;;;;;;5088358;28;20024;-75
2022/04/07 08:25:11;;;;;;;2.10;1.08;;;10.80;90.20;;;;;;5089120;28;20031;-77
2022/04/07 08:27:36;;;;;;;1.80;0.93;;;10.80;90.20;;;;;;5090811;28;20341;-76
2022/04/07 08:30:03;;;;;;;1.77;0.95;;;10.80;90.20;;;;;;5091058;28;20440;-73
2022/04/07 08:32:31;;;;;;;1.55;0.90;;;10.80;90.10;;;;;;5089499;28;20050;-75
2022/04/07 08:34:58;;;;;;;3.17;1.00;;;10.80;90.10;;;;;;5090021;28;20375;-74
2022/04/07 08:37:24;;;;;;;4.68;0.90;;;10.80;90.00;;;;;;5085189;28;20043;-73
2022/04/07 08:39:51;;;;;;;3.20;0.95;;;10.80;90.10;;;;;;5069442;28;20028;-73
2022/04/07 08:42:20;;;;;;;2.25;0.95;;;10.80;90.10;;;;;;5072347;28;20028;-73
2022/04/07 08:44:46;;;;;;;2.42;0.90;;;10.80;90.10;;;;;;5090190;28;20028;-73
2022/04/07 08:47:14;;;;;;;1.88;1.00;;;10.80;90.20;;;;;;5096100;28;20058;-74
2022/04/07 08:49:42;;;;;;;2.22;0.90;;;10.80;90.20;;;;;;5088783;28;20050;-74
2022/04/07 08:52:08;;;;;;;2.40;0.90;;;10.80;90.20;;;;;;5090134;28;20044;-73
2022/04/07 08:54:33;;;;;;;4.05;1.00;;;10.80;90.20;;;;;;5090007;28;20020;-75
2022/04/07 08:56:59;;;;;;;3.28;0.90;;;10.80;90.20;;;;;;5090862;28;20040;-75
2022/04/07 08:59:24;;;;;;;1.58;0.90;;;10.80;90.20;;;;;;5089844;28;20043;-74
2022/04/07 09:01:50;;;;;;;1.40;0.90;;;10.80;90.40;;;;;;5089737;28;20046;-74
2022/04/07 09:04:20;;;;;;;3.58;1.08;;;10.80;90.20;;;;;;5091400;28;20469;-75
2022/04/07 09:06:46;;;;;;;3.25;0.90;;;10.80;90.20;;;;;;5074086;28;20510;-72
2022/04/07 09:09:18;;;;;;;2.05;0.85;;;10.80;90.20;;;;;;5082438;28;20080;-81
2022/04/07 09:11:44;;;;;;;2.88;1.00;;;10.80;90.20;;;;;;5091055;28;20027;-80
2022/04/07 09:14:10;;;;;;;3.33;0.90;;;10.80;90.20;;;;;;5089202;28;20024;-75
2022/04/07 09:16:38;;;;;;;1.67;0.95;;;10.80;90.30;;;;;;5082545;28;20028;-74
2022/04/07 09:19:04;;;;;;;1.40;0.90;;;10.80;90.30;;;;;;5069751;28;20020;-74
2022/04/07 09:21:31;;;;;;;2.55;0.90;;;10.80;90.30;;;;;;5081397;28;20035;-74
2022/04/07 09:24:00;;;;;;;1.55;0.90;;;10.90;90.30;;;;;;5090301;28;20119;-76
2022/04/07 09:26:28;;;;;;;4.15;1.20;;;10.80;90.30;;;;;;5089475;28;20020;-73
2022/04/07 09:28:57;;;;;;;2.40;0.98;;;10.90;90.20;;;;;;5088707;28;20028;-77
2022/04/07 09:31:23;;;;;;;1.92;0.80;;;10.90;90.20;;;;;;5088900;28;20028;-75
2022/04/07 09:33:56;;;;;;;2.15;0.70;;;10.80;90.20;;;;;;5080535;28;20028;-77
2022/04/07 09:36:23;;;;;;;1.88;0.90;;;10.90;90.20;;;;;;5070441;28;20029;-74
2022/04/07 09:38:53;;;;;;;1.60;0.70;;;10.90;90.20;;;;;;5077375;28;20032;-74
2022/04/07 09:41:21;;;;;;;1.98;1.10;;;10.90;90.30;;;;;;5088963;28;20027;-75
2022/04/07 09:43:47;;;;;;;2.00;0.80;;;10.90;90.30;;;;;;5090524;28;20522;-76
2022/04/07 09:46:18;;;;;;;2.03;0.60;;;10.90;90.30;;;;;;5090533;28;20446;-74
2022/04/07 09:49:01;;;;;;;1.92;0.80;;;10.90;90.30;;;;;;5089511;28;20020;-80
2022/04/07 09:51:28;;;;;;;2.30;0.90;;;10.90;90.20;;;;;;5089300;28;20058;-76
2022/04/07 09:53:55;;;;;;;1.35;0.60;;;10.90;90.20;;;;;;5090350;28;20024;-74
2022/04/07 09:56:24;;;;;;;1.10;0.60;;;10.80;90.10;;;;;;5088834;28;20444;-75
2022/04/07 09:58:51;;;;;;;0.85;0.60;;;10.80;90.00;;;;;;5090039;28;20117;-80
2022/04/07 10:01:16;;;;;;;1.52;0.70;;;10.80;90.00;;;;;;5092326;28;20035;-75
2022/04/07 10:03:43;;;;;;;1.63;0.63;;;10.80;89.80;;;;;;5092660;28;20036;-76
2022/04/07 10:06:08;;;;;;;1.27;0.70;;;10.80;89.70;;;;;;5092945;28;20024;-75
2022/04/07 10:08:37;;;;;;;1.98;0.73;;;10.80;89.50;;;;;;5093685;28;20024;-75
2022/04/07 10:11:03;;;;;;;1.15;0.57;;;10.80;89.30;;;;;;5093974;28;20016;-80
2022/04/07 10:13:30;;;;;;;1.60;0.60;;;10.80;89.20;;;;;;5092533;28;20028;-73
2022/04/07 10:15:57;;;;;;;1.33;0.57;;;10.80;89.10;;;;;;5093921;28;20036;-77
2022/04/07 10:18:29;;;;;;;1.23;0.60;;;10.80;89.00;;;;;;5092341;28;20024;-72
2022/04/07 10:20:58;;;;;;;1.65;0.60;;;10.80;88.90;;;;;;5094044;28;20028;-75
2022/04/07 10:23:26;;;;;;;1.88;0.75;;;10.90;88.90;;;;;;5083051;28;20071;-73
2022/04/07 10:25:54;;;;;;;1.20;0.50;;;10.80;88.70;;;;;;5073194;28;20096;-72
2022/04/07 10:28:20;;;;;;;2.45;0.70;;;10.80;88.60;;;;;;5072734;28;20043;-79
2022/04/07 10:30:48;;;;;;;1.63;0.70;;;10.80;88.50;;;;;;5088605;28;20035;-74
2022/04/07 10:33:34;;;;;;;2.25;0.63;;;10.80;88.40;;;;;;5083201;28;20079;-74
2022/04/07 10:36:06;;;;;;;1.92;0.73;;;10.80;88.30;;;;;;5093374;28;20027;-74
2022/04/07 10:38:40;;;;;;;2.17;0.70;;;10.90;88.30;;;;;;5093248;28;20576;-76
2022/04/07 10:41:05;;;;;;;1.08;0.60;;;10.90;88.10;;;;;;5093335;28;20374;-74
2022/04/07 10:43:31;;;;;;;1.50;0.60;;;10.90;88.30;;;;;;5092122;28;20094;-74
2022/04/07 10:46:05;;;;;;;1.70;0.80;;;11.00;88.00;;;;;;5093176;28;20470;-75
2022/04/07 10:48:33;;;;;;;4.05;0.90;;;11.00;87.80;;;;;;5093080;28;20016;-76
2022/04/07 10:51:06;;;;;;;3.10;0.90;;;11.00;87.30;;;;;;5092802;28;20060;-77
2022/04/07 10:53:51;;;;;;;2.03;0.85;;;11.10;87.30;;;;;;5092503;28;20028;-76
2022/04/07 10:56:39;;;;;;;1.63;0.73;;;11.10;87.10;;;;;;5092227;28;20825;-75
2022/04/07 10:59:20;;;;;;;2.40;0.88;;;11.10;86.80;;;;;;5093286;28;20024;-74
2022/04/07 11:01:52;;;;;;;;;;;11.20;86.90;;;;;;5092900;28;20706;-74
2022/04/07 11:04:18;;;;;;;1.35;0.60;;;11.20;86.70;;;;;;5092115;28;19919;-79
2022/04/07 11:07:13;;;;;;;1.77;0.70;;;11.20;86.80;;;;;;5092460;28;20016;-75
2022/04/07 11:09:48;;;;;;;1.20;0.52;;;11.20;86.70;;;;;;5092305;28;20551;-77
2022/04/07 11:12:19;;;;;;;1.77;0.63;;;11.20;86.50;;;;;;5091630;28;20048;-77
2022/04/07 11:14:46;;;;;;;1.30;0.60;;;11.20;86.50;;;;;;5091436;28;20500;-76
2022/04/07 11:17:47;;;;;;;1.98;0.70;;;11.20;86.50;;;;;;5091879;28;20679;-75
2022/04/07 11:20:25;;;;;;;0.70;0.50;;;11.20;86.40;;;;;;5080890;28;20111;-74
2022/04/07 11:23:07;;;;;;;2.05;0.88;;;11.30;86.40;;;;;;5092297;28;20028;-79
2022/04/07 11:25:37;;;;;;;2.22;0.70;;;11.30;86.20;;;;;;5091476;28;20016;-75
2022/04/07 11:28:14;;;;;;;2.42;0.90;;;11.30;86.20;;;;;;5090554;28;20063;-75
2022/04/07 11:30:42;;;;;;;5.65;0.75;;;11.30;86.00;;;;;;5088440;28;20114;-80
2022/04/07 11:33:28;;;;;;;1.95;0.82;;;11.30;85.90;;;;;;5090541;28;20236;-72
2022/04/07 11:36:00;;;;;;;1.58;0.60;;;11.40;86.00;;;;;;5091722;28;20028;-74
2022/04/07 11:38:33;;;;;;;1.83;0.70;;;11.40;86.00;;;;;;5091889;28;20110;-77
2022/04/07 11:41:04;;;;;;;4.05;0.80;;;11.30;85.90;;;;;;5091920;28;20031;-75
2022/04/07 11:43:31;;;;;;;2.58;0.70;;;11.30;86.00;;;;;;5092540;28;20107;-75
2022/04/07 11:45:58;;;;;;;1.35;0.70;;;11.30;86.10;;;;;;5091754;28;20020;-76
2022/04/07 11:48:24;;;;;;;2.53;0.70;;;11.30;86.10;;;;;;5091849;28;20097;-77
2022/04/07 11:50:50;;;;;;;3.05;0.90;;;11.30;86.20;;;;;;5092560;28;20039;-74
2022/04/07 11:53:17;;;;;;;2.00;0.75;;;11.30;86.10;;;;;;5091003;28;20034;-75
2022/04/07 11:55:43;;;;;;;2.13;0.80;;;11.30;86.10;;;;;;5092075;28;20024;-75
2022/04/07 11:58:10;;;;;;;1.27;0.70;;;11.30;86.20;;;;;;5091757;28;20028;-77
2022/04/07 12:00:36;;;;;;;2.30;0.68;;;11.30;86.10;;;;;;5091074;28;20436;-79
2022/04/07 12:03:04;;;;;;;1.38;0.70;;;11.40;86.00;;;;;;5091931;28;20024;-75
2022/04/07 12:05:30;;;;;;;2.05;0.80;;;11.40;85.90;;;;;;5091804;28;20032;-77
2022/04/07 12:07:56;;;;;;;1.10;0.63;;;11.40;85.70;;;;;;5090567;28;20028;-74
2022/04/07 12:10:22;;;;;;;1.58;0.70;;;11.40;85.60;;;;;;5090574;28;20028;-75
2022/04/07 12:12:48;;;;;;;2.03;0.70;;;11.50;85.50;;;;;;5092384;28;20058;-75
2022/04/07 12:15:16;;;;;;;2.35;0.73;;;11.50;85.40;;;;;;5090194;28;20032;-78
2022/04/07 12:18:01;;;;;;;1.60;0.70;;;11.50;85.30;;;;;;5088439;28;20031;-76
2022/04/07 12:20:27;;;;;;;2.05;0.75;;;11.50;85.20;;;;;;5089515;28;20027;-74
2022/04/07 12:23:13;;;;;;;1.60;0.80;;;11.50;85.10;;;;;;5089448;28;20043;-79
2022/04/07 12:25:43;;;;;;;1.45;0.70;;;11.60;84.90;;;;;;5088324;28;20488;-75
2022/04/07 12:28:12;;;;;;;3.15;0.70;;;11.60;84.70;;;;;;5077416;28;20016;-75
2022/04/07 12:30:46;;;;;;;2.40;0.65;;;11.60;84.60;;;;;;5085435;28;20550;-79
2022/04/07 12:33:31;;;;;;;2.78;0.90;;;11.60;84.80;;;;;;5088587;28;20507;-76
2022/04/07 12:35:57;;;;;;;3.08;1.00;;;11.50;85.00;;;;;;5088459;28;20148;-76
2022/04/07 12:38:23;;;;;;;2.22;0.90;;;11.50;85.20;;;;;;5089324;28;20597;-75
2022/04/07 12:40:49;;;;;;;3.60;0.90;;;11.50;85.20;;;;;;5089462;28;20036;-78
2022/04/07 12:43:15;;;;;;;2.75;1.00;;;11.50;85.10;;;;;;5089074;28;20051;-76
2022/04/07 12:45:58;;;;;;;4.50;1.00;;;11.50;85.10;;;;;;5089565;28;20062;-76
2022/04/07 12:48:24;;;;;;;1.98;0.98;;;11.50;85.10;;;;;;5088996;28;20515;-75